createdAt,value
2022-08-21T00:01:07.318Z,3.299
2022-08-21T00:02:07.721Z,3.099
2022-08-21T00:03:07.111Z,3.900
2022-08-21T00:04:07.322Z,3.200
2022-08-21T00:05:07.788Z,3.299
2022-08-21T00:07:07.500Z,3.400
2022-08-21T00:08:07.751Z,3.299
2022-08-21T00:09:07.357Z,3.099
2022-08-21T00:10:07.671Z,3.400
2022-08-21T00:11:07.181Z,3.200
2022-08-21T00:12:07.349Z,3.5
2022-08-21T00:13:07.516Z,3.299
2022-08-21T00:14:07.596Z,3.099
2022-08-21T00:16:06.936Z,3.299
2022-08-21T00:17:07.373Z,3.5
2022-08-21T00:18:07.499Z,3.099
2022-08-21T00:19:07.604Z,3.900
2022-08-21T00:20:07.123Z,3.5
2022-08-21T00:21:07.327Z,3.400
2022-08-21T00:22:07.736Z,3.200
2022-08-21T00:23:06.979Z,3.5
2022-08-21T00:24:07.730Z,3.700
2022-08-21T00:25:07.095Z,3.200
2022-08-21T00:26:07.399Z,3.400
2022-08-21T00:27:07.526Z,3.299
2022-08-21T00:28:06.983Z,3.200
2022-08-21T00:29:07.261Z,3.299
2022-08-21T00:31:07.326Z,3.599
2022-08-21T00:32:07.276Z,4.199
2022-08-21T00:33:07.464Z,3.400
2022-08-21T00:35:07.919Z,3.5
2022-08-21T00:37:07.742Z,3.299
2022-08-21T00:38:07.043Z,3.400
2022-08-21T00:39:07.241Z,3.900
2022-08-21T00:40:07.577Z,3.400
2022-08-21T00:41:36.786Z,3.299
2022-08-21T00:42:07.172Z,3.799
2022-08-21T00:43:07.273Z,3.5
2022-08-21T00:44:07.596Z,3.400
2022-08-21T00:45:07.242Z,3.700
2022-08-21T00:46:07.468Z,3.599
2022-08-21T00:47:07.706Z,4.099
2022-08-21T00:48:07.167Z,3.599
2022-08-21T00:49:07.439Z,3.200
2022-08-21T00:50:07.719Z,3.5
2022-08-21T00:51:07.462Z,2.900
2022-08-21T00:52:07.507Z,3.5
2022-08-21T00:53:07.661Z,3.400
2022-08-21T00:54:06.980Z,3.799
2022-08-21T00:55:07.237Z,3.400
2022-08-21T00:56:06.852Z,3.099
2022-08-21T00:57:06.982Z,3.200
2022-08-21T00:58:06.966Z,3.5
2022-08-21T00:59:07.300Z,3.299
2022-08-21T01:00:07.949Z,3.400
2022-08-21T01:01:08.818Z,3.599
2022-08-21T01:03:08.941Z,3.200
2022-08-21T01:04:07.366Z,3.400
2022-08-21T01:06:07.768Z,3.5
2022-08-21T01:07:07.185Z,3.599
2022-08-21T01:08:07.104Z,3.700
2022-08-21T01:09:07.338Z,3.799
2022-08-21T01:10:07.501Z,3.5
2022-08-21T01:12:07.087Z,3.700
2022-08-21T01:13:07.356Z,3.799
2022-08-21T01:14:07.549Z,3.599
2022-08-21T01:15:07.937Z,3.5
2022-08-21T01:16:07.159Z,3.400
2022-08-21T01:17:07.484Z,3.700
2022-08-21T01:18:07.583Z,3.900
2022-08-21T01:19:07.883Z,3.400
2022-08-21T01:21:07.294Z,3.299
2022-08-21T01:22:07.381Z,3.400
2022-08-21T01:25:07.328Z,3.599
2022-08-21T01:28:07.637Z,3.5
2022-08-21T01:29:06.981Z,3.299
2022-08-21T01:30:07.665Z,3.5
2022-08-21T01:31:07.195Z,3.700
2022-08-21T01:32:07.496Z,3.900
2022-08-21T01:33:07.043Z,3.599
2022-08-21T01:34:07.191Z,3.200
2022-08-21T01:35:07.555Z,3.400
2022-08-21T01:36:06.698Z,3.599
2022-08-21T01:37:06.802Z,3.400
2022-08-21T01:39:07.232Z,3.5
2022-08-21T01:40:07.225Z,3.599
2022-08-21T01:41:07.653Z,3.5
2022-08-21T01:42:08.028Z,3.700
2022-08-21T01:43:07.411Z,3.599
2022-08-21T01:44:07.676Z,3.799
2022-08-21T01:45:07.237Z,3.700
2022-08-21T01:46:07.626Z,4
2022-08-21T01:47:07.324Z,3.5
2022-08-21T01:49:07.803Z,3.799
2022-08-21T01:50:07.030Z,3.599
2022-08-21T01:51:07.272Z,3.799
2022-08-21T01:52:09.529Z,3.599
2022-08-21T01:53:07.001Z,3.5
2022-08-21T01:54:07.057Z,3.799
2022-08-21T01:55:07.300Z,3.599
2022-08-21T01:56:12.205Z,3.400
2022-08-21T01:57:06.964Z,3.5
2022-08-21T01:58:07.247Z,3.799
2022-08-21T01:59:07.338Z,3.5
2022-08-21T02:00:08.278Z,3.599
2022-08-21T02:02:07.525Z,3.299
2022-08-21T02:03:07.701Z,3.700
2022-08-21T02:04:07.745Z,3.599
2022-08-21T02:05:07.232Z,3.5
2022-08-21T02:07:08.474Z,3.900
2022-08-21T02:09:07.074Z,3.5
2022-08-21T02:10:07.580Z,4.400
2022-08-21T02:11:07.986Z,3.599
2022-08-21T02:12:07.474Z,3.400
2022-08-21T02:13:07.536Z,3.700
2022-08-21T02:14:07.424Z,3.599
2022-08-21T02:15:07.894Z,3.900
2022-08-21T02:16:07.215Z,3.700
2022-08-21T02:17:09.361Z,3.599
2022-08-21T02:18:07.205Z,3.900
2022-08-21T02:19:07.437Z,3.5
2022-08-21T02:20:07.897Z,4
2022-08-21T02:21:07.709Z,3.799
2022-08-21T02:22:06.789Z,3.5
2022-08-21T02:23:07.478Z,3.799
2022-08-21T02:24:07.815Z,4.099
2022-08-21T02:26:07.654Z,3.799
2022-08-21T02:27:07.054Z,3.900
2022-08-21T02:28:07.389Z,3.700
2022-08-21T02:29:07.758Z,4.099
2022-08-21T02:30:07.339Z,4.400
2022-08-21T02:31:07.370Z,4.300
2022-08-21T02:32:07.683Z,3.5
2022-08-21T02:33:07.064Z,3.900
2022-08-21T02:34:07.173Z,3.700
2022-08-21T02:35:07.406Z,3.599
2022-08-21T02:36:07.576Z,4.099
2022-08-21T02:37:07.675Z,4.400
2022-08-21T02:38:06.990Z,4.800
2022-08-21T02:39:07.524Z,3.799
2022-08-21T02:40:07.735Z,4.400
2022-08-21T02:41:07.402Z,4.099
2022-08-21T02:43:07.507Z,4.300
2022-08-21T02:44:07.641Z,4
2022-08-21T02:45:07.227Z,3.700
2022-08-21T02:46:07.375Z,4.199
2022-08-21T02:47:07.625Z,4.099
2022-08-21T02:48:06.981Z,3.900
2022-08-21T02:49:07.142Z,4.099
2022-08-21T02:50:07.318Z,4.300
2022-08-21T02:52:07.663Z,4.099
2022-08-21T02:53:07.090Z,4.199
2022-08-21T02:54:07.138Z,3.700
2022-08-21T02:55:07.475Z,4.699
2022-08-21T02:56:07.579Z,4.400
2022-08-21T02:57:07.780Z,5.199
2022-08-21T02:58:07.199Z,4
2022-08-21T02:59:07.226Z,3.900
2022-08-21T03:00:08.055Z,4
2022-08-21T03:01:06.998Z,4.5
2022-08-21T03:02:07.372Z,4.300
2022-08-21T03:03:07.481Z,4.800
2022-08-21T03:04:07.058Z,4.199
2022-08-21T03:05:07.563Z,4.300
2022-08-21T03:06:07.849Z,4.800
2022-08-21T03:07:07.104Z,4.400
2022-08-21T03:08:07.178Z,4.300
2022-08-21T03:09:07.458Z,4.099
2022-08-21T03:10:07.949Z,4.199
2022-08-21T03:11:07.696Z,3.700
2022-08-21T03:12:07.369Z,3.799
2022-08-21T03:15:07.929Z,3.900
2022-08-21T03:16:10.101Z,3.799
2022-08-21T03:17:07.847Z,4.199
2022-08-21T03:18:07.218Z,4.5
2022-08-21T03:19:07.282Z,3.900
2022-08-21T03:20:07.483Z,3.799
2022-08-21T03:23:12.410Z,4.099
2022-08-21T03:24:07.163Z,4.199
2022-08-21T03:25:07.682Z,4.099
2022-08-21T03:26:07.324Z,4.300
2022-08-21T03:27:09.243Z,4.5
2022-08-21T03:28:07.786Z,3.900
2022-08-21T03:29:07.026Z,4.300
2022-08-21T03:30:07.381Z,3.900
2022-08-21T03:31:07.750Z,4.400
2022-08-21T03:32:07.211Z,4.199
2022-08-21T03:33:07.203Z,4.400
2022-08-21T03:34:06.979Z,4.199
2022-08-21T03:35:07.292Z,4.5
2022-08-21T03:37:07.742Z,4.800
2022-08-21T03:38:06.964Z,4.400
2022-08-21T03:39:07.179Z,4.5
2022-08-21T03:40:07.262Z,4.300
2022-08-21T03:41:08.170Z,4.099
2022-08-21T03:42:07.676Z,4.300
2022-08-21T03:43:06.974Z,4.199
2022-08-21T03:44:07.332Z,4.5
2022-08-21T03:45:07.927Z,4.300
2022-08-21T03:46:07.283Z,4.099
2022-08-21T03:47:07.631Z,4.900
2022-08-21T03:49:07.197Z,4.599
2022-08-21T03:50:07.482Z,4.699
2022-08-21T03:51:07.486Z,5.099
2022-08-21T03:54:07.018Z,4.599
2022-08-21T03:55:07.286Z,4.699
2022-08-21T03:56:07.375Z,5.199
2022-08-21T03:57:07.583Z,5.400
2022-08-21T03:58:16.923Z,5.5
2022-08-21T03:59:07.790Z,5.400
2022-08-21T04:00:07.726Z,5.300
2022-08-21T04:01:07.408Z,5
2022-08-21T04:03:07.050Z,5.300
2022-08-21T04:04:06.875Z,5
2022-08-21T04:05:07.146Z,4.900
2022-08-21T04:06:07.315Z,5.400
2022-08-21T04:07:07.546Z,4.699
2022-08-21T04:08:07.705Z,4.800
2022-08-21T04:09:07.032Z,5
2022-08-21T04:10:07.283Z,4.400
2022-08-21T04:11:07.435Z,4.599
2022-08-21T04:12:07.559Z,4.800
2022-08-21T04:13:06.882Z,4.599
2022-08-21T04:14:07.072Z,4.5
2022-08-21T04:15:07.425Z,4.800
2022-08-21T04:16:07.723Z,5
2022-08-21T04:17:07.128Z,4.699
2022-08-21T04:19:07.398Z,4.5
2022-08-21T04:20:07.534Z,4.800
2022-08-21T04:21:07.708Z,4.900
2022-08-21T04:22:07.019Z,5.099
2022-08-21T04:23:07.132Z,5.400
2022-08-21T04:24:07.469Z,5.300
2022-08-21T04:26:07.343Z,5.800
2022-08-21T04:27:07.561Z,6.300
2022-08-21T04:28:07.710Z,6.099
2022-08-21T04:29:07.052Z,6.699
2022-08-21T04:30:08.004Z,6.099
2022-08-21T04:31:07.465Z,5.900
2022-08-21T04:32:07.898Z,5.300
2022-08-21T04:33:07.516Z,5.800
2022-08-21T04:34:07.500Z,6.099
2022-08-21T04:35:07.801Z,6.300
2022-08-21T04:36:07.057Z,5.5
2022-08-21T04:37:07.187Z,5.599
2022-08-21T04:38:07.264Z,5.699
2022-08-21T04:41:07.279Z,5.099
2022-08-21T04:42:07.413Z,5.5
2022-08-21T04:43:07.655Z,5.400
2022-08-21T04:44:07.686Z,5.099
2022-08-21T04:45:07.393Z,5.800
2022-08-21T04:46:07.569Z,4.800
2022-08-21T04:47:07.860Z,5.400
2022-08-21T04:48:09.670Z,5.199
2022-08-21T04:49:07.605Z,5.400
2022-08-21T04:50:07.095Z,5.599
2022-08-21T04:51:07.211Z,4.900
2022-08-21T04:52:07.225Z,4.800
2022-08-21T04:53:07.441Z,5.300
2022-08-21T04:54:07.845Z,5.199
2022-08-21T04:56:07.681Z,5.400
2022-08-21T04:57:07.255Z,5.199
2022-08-21T04:58:07.660Z,5.400
2022-08-21T04:59:07.801Z,5.199
2022-08-21T05:00:12.328Z,5.099
2022-08-21T05:02:07.263Z,5.5
2022-08-21T05:04:07.038Z,5.300
2022-08-21T05:05:07.483Z,6.400
2022-08-21T05:06:07.746Z,5.900
2022-08-21T05:07:07.170Z,6.099
2022-08-21T05:09:08.025Z,5.699
2022-08-21T05:10:07.560Z,7
2022-08-21T05:11:07.110Z,5.699
2022-08-21T05:12:07.348Z,6.099
2022-08-21T05:13:07.595Z,5.300
2022-08-21T05:14:06.866Z,6.199
2022-08-21T05:15:07.677Z,5.900
2022-08-21T05:17:07.864Z,6.400
2022-08-21T05:18:07.365Z,6.699
2022-08-21T05:19:07.343Z,6.300
2022-08-21T05:20:07.796Z,6.099
2022-08-21T05:21:07.447Z,5.800
2022-08-21T05:22:07.787Z,5.699
2022-08-21T05:23:07.387Z,6.5
2022-08-21T05:24:07.588Z,5.599
2022-08-21T05:25:10.084Z,6.800
2022-08-21T05:26:07.749Z,5.599
2022-08-21T05:27:07.545Z,5.699
2022-08-21T05:28:07.491Z,5.400
2022-08-21T05:30:08.172Z,5.900
2022-08-21T05:31:07.945Z,5.400
2022-08-21T05:32:07.642Z,5.900
2022-08-21T05:33:08.065Z,5.199
2022-08-21T05:34:07.597Z,5.400
2022-08-21T05:35:07.936Z,4.900
2022-08-21T05:36:07.325Z,5.599
2022-08-21T05:37:07.790Z,5.199
2022-08-21T05:38:07.468Z,5
2022-08-21T05:39:07.195Z,5.300
2022-08-21T05:40:21.137Z,5
2022-08-21T05:41:07.609Z,5.699
2022-08-21T05:42:07.125Z,4.900
2022-08-21T05:43:07.235Z,5
2022-08-21T05:44:10.102Z,4.699
2022-08-21T05:45:07.895Z,5.699
2022-08-21T05:46:07.261Z,5
2022-08-21T05:48:08.016Z,4.900
2022-08-21T05:49:07.305Z,5.099
2022-08-21T05:50:07.609Z,5.300
2022-08-21T05:51:07.712Z,5.099
2022-08-21T05:53:07.389Z,5.599
2022-08-21T05:54:07.220Z,5.400
2022-08-21T05:55:07.703Z,4.900
2022-08-21T05:56:07.153Z,5.300
2022-08-21T05:57:07.530Z,5.599
2022-08-21T05:58:08.017Z,4.699
2022-08-21T05:59:08.611Z,4.599
2022-08-21T06:00:07.990Z,4.900
2022-08-21T06:01:07.185Z,4.800
2022-08-21T06:03:07.878Z,5.5
2022-08-21T06:04:07.332Z,5.900
2022-08-21T06:05:07.765Z,4.900
2022-08-21T06:06:07.314Z,5.400
2022-08-21T06:07:07.559Z,5.199
2022-08-21T06:08:07.856Z,4.699
2022-08-21T06:09:07.100Z,5
2022-08-21T06:10:07.429Z,4.699
2022-08-21T06:11:07.794Z,5
2022-08-21T06:12:07.271Z,4.800
2022-08-21T06:13:07.563Z,4.5
2022-08-21T06:14:07.697Z,4.199
2022-08-21T06:16:07.758Z,4.400
2022-08-21T06:17:07.190Z,4.300
2022-08-21T06:19:07.295Z,4.199
2022-08-21T06:20:07.418Z,4
2022-08-21T06:21:07.515Z,3.900
2022-08-21T06:22:07.708Z,4.300
2022-08-21T06:23:07.424Z,3.900
2022-08-21T06:24:07.660Z,4.800
2022-08-21T06:25:07.177Z,3.900
2022-08-21T06:26:07.392Z,4
2022-08-21T06:27:07.679Z,3.599
2022-08-21T06:28:07.506Z,3.900
2022-08-21T06:29:07.190Z,3.599
2022-08-21T06:30:07.738Z,3.5
2022-08-21T06:31:07.312Z,3.700
2022-08-21T06:32:07.568Z,3.900
2022-08-21T06:33:07.209Z,4.199
2022-08-21T06:34:07.536Z,3.299
2022-08-21T06:35:07.899Z,3.700
2022-08-21T06:36:07.387Z,3.599
2022-08-21T06:37:07.690Z,3.700
2022-08-21T06:38:06.868Z,4.099
2022-08-21T06:39:16.546Z,5
2022-08-21T06:40:12.535Z,4
2022-08-21T06:41:07.132Z,3.700
2022-08-21T06:42:10.242Z,3.900
2022-08-21T06:43:07.223Z,3.700
2022-08-21T06:44:07.472Z,3.799
2022-08-21T06:45:08.182Z,3.400
2022-08-21T06:46:07.628Z,3.700
2022-08-21T06:47:08.175Z,4.199
2022-08-21T06:48:07.590Z,3.299
2022-08-21T06:49:07.481Z,3.900
2022-08-21T06:50:07.465Z,3.599
2022-08-21T06:52:07.802Z,3.700
2022-08-21T06:53:07.170Z,3.5
2022-08-21T06:55:07.717Z,3.299
2022-08-21T06:56:07.294Z,4
2022-08-21T06:57:07.609Z,3.599
2022-08-21T06:58:07.320Z,3.700
2022-08-21T06:59:07.700Z,3.599
2022-08-21T07:00:07.829Z,3.5
2022-08-21T07:01:07.808Z,3.700
2022-08-21T07:02:07.304Z,3.799
2022-08-21T07:03:07.495Z,3.299
2022-08-21T07:04:07.914Z,3.599
2022-08-21T07:05:15.632Z,3.299
2022-08-21T07:06:07.506Z,3.700
2022-08-21T07:07:07.885Z,3.799
2022-08-21T07:08:07.378Z,3.5
2022-08-21T07:09:07.920Z,3.599
2022-08-21T07:10:07.307Z,3.799
2022-08-21T07:11:07.463Z,3.5
2022-08-21T07:12:06.999Z,4.199
2022-08-21T07:13:07.686Z,3.5
2022-08-21T07:14:07.116Z,3.599
2022-08-21T07:15:07.526Z,3.5
2022-08-21T07:16:07.064Z,4.099
2022-08-21T07:17:07.321Z,3.700
2022-08-21T07:18:07.602Z,4.300
2022-08-21T07:19:07.800Z,4
2022-08-21T07:20:07.282Z,3.599
2022-08-21T07:21:07.202Z,3.5
2022-08-21T07:24:07.460Z,3.400
2022-08-21T07:25:08.106Z,3.200
2022-08-21T07:26:07.625Z,3.299
2022-08-21T07:27:10.034Z,3.400
2022-08-21T07:28:07.888Z,3.900
2022-08-21T07:29:07.368Z,3.5
2022-08-21T07:30:07.814Z,3.900
2022-08-21T07:31:07.494Z,3.5
2022-08-21T07:32:08.040Z,3.400
2022-08-21T07:33:07.761Z,3.5
2022-08-21T07:34:07.212Z,3.099
2022-08-21T07:35:07.792Z,3.700
2022-08-21T07:36:07.457Z,3.599
2022-08-21T07:37:09.985Z,3.299
2022-08-21T07:38:07.554Z,3.400
2022-08-21T07:39:07.181Z,3.5
2022-08-21T07:40:07.609Z,3.099
2022-08-21T07:41:07.062Z,3.400
2022-08-21T07:42:08.490Z,3.799
2022-08-21T07:43:07.400Z,3.5
2022-08-21T07:44:07.602Z,3.599
2022-08-21T07:45:08.008Z,2.900
2022-08-21T07:46:07.664Z,3.200
2022-08-21T07:47:07.004Z,3.799
2022-08-21T07:48:07.010Z,3.400
2022-08-21T07:49:07.201Z,3.200
2022-08-21T07:50:07.610Z,2.799
2022-08-21T07:51:08.060Z,3.200
2022-08-21T07:52:07.634Z,2.900
2022-08-21T07:54:07.441Z,3.5
2022-08-21T07:55:07.769Z,3.099
2022-08-21T07:56:07.390Z,2.900
2022-08-21T07:57:07.849Z,2.700
2022-08-21T07:58:07.417Z,3.299
2022-08-21T08:00:08.072Z,3
2022-08-21T08:01:07.910Z,3.5
2022-08-21T08:02:07.472Z,3.400
2022-08-21T08:03:07.734Z,3.099
2022-08-21T08:04:07.356Z,3.299
2022-08-21T08:05:07.502Z,3.099
2022-08-21T08:06:07.726Z,3.400
2022-08-21T08:07:06.960Z,3.200
2022-08-21T08:08:07.337Z,3.799
2022-08-21T08:09:07.861Z,3.400
2022-08-21T08:10:07.451Z,3
2022-08-21T08:11:07.722Z,2.900
2022-08-21T08:12:07.053Z,3
2022-08-21T08:13:07.110Z,3.5
2022-08-21T08:14:07.008Z,3.200
2022-08-21T08:15:07.488Z,2.900
2022-08-21T08:17:07.044Z,3.200
2022-08-21T08:18:07.414Z,2.700
2022-08-21T08:20:07.103Z,3
2022-08-21T08:21:07.622Z,2.700
2022-08-21T08:22:07.159Z,3
2022-08-21T08:23:07.417Z,2.700
2022-08-21T08:24:19.015Z,2.799
2022-08-21T08:25:09.437Z,2.599
2022-08-21T08:27:07.651Z,2.400
2022-08-21T08:28:17.281Z,2.799
2022-08-21T08:29:07.001Z,2.5
2022-08-21T08:30:07.567Z,2.599
2022-08-21T08:32:07.419Z,2.400
2022-08-21T08:33:07.853Z,2.299
2022-08-21T08:34:07.419Z,2.400
2022-08-21T08:35:07.764Z,2.599
2022-08-21T08:36:08.288Z,2.400
2022-08-21T08:37:07.717Z,2.299
2022-08-21T08:40:07.922Z,2.400
2022-08-21T08:41:07.643Z,2.200
2022-08-21T08:42:32.006Z,2.299
2022-08-21T08:44:07.552Z,2.200
2022-08-21T08:45:07.400Z,2.299
2022-08-21T08:47:07.188Z,2.400
2022-08-21T08:48:07.502Z,2.299
2022-08-21T08:49:07.215Z,2.200
2022-08-21T08:50:07.796Z,2.099
2022-08-21T08:52:07.539Z,1.799
2022-08-21T08:53:07.622Z,1.899
2022-08-21T08:54:07.408Z,1.799
2022-08-21T08:55:07.907Z,1.600
2022-08-21T08:56:07.333Z,2.099
2022-08-21T08:57:07.768Z,2
2022-08-21T08:59:07.304Z,2.200
2022-08-21T09:00:08.495Z,2
2022-08-21T09:01:07.320Z,2.200
2022-08-21T09:02:07.989Z,2.400
2022-08-21T09:03:07.499Z,2.299
2022-08-21T09:04:07.815Z,1.899
2022-08-21T09:05:07.440Z,2.400
2022-08-21T09:06:07.823Z,2
2022-08-21T09:08:09.379Z,2.200
2022-08-21T09:09:07.273Z,1.899
2022-08-21T09:10:07.567Z,2
2022-08-21T09:12:07.262Z,2.200
2022-08-21T09:14:07.281Z,2
2022-08-21T09:15:07.933Z,2.299
2022-08-21T09:16:07.599Z,2.200
2022-08-21T09:17:07.279Z,2.299
2022-08-21T09:18:08.016Z,2.200
2022-08-21T09:22:07.409Z,2.099
2022-08-21T09:23:07.566Z,2.200
2022-08-21T09:24:08.057Z,2.099
2022-08-21T09:25:07.586Z,2.200
2022-08-21T09:26:07.251Z,2.099
2022-08-21T09:27:07.386Z,1.700
2022-08-21T09:28:07.972Z,1.899
2022-08-21T09:29:07.389Z,2
2022-08-21T09:30:07.862Z,2.099
2022-08-21T09:31:07.263Z,2
2022-08-21T09:32:07.575Z,1.799
2022-08-21T09:33:07.421Z,2
2022-08-21T09:34:07.980Z,2.299
2022-08-21T09:35:07.331Z,2
2022-08-21T09:36:07.698Z,1.799
2022-08-21T09:37:07.432Z,1.600
2022-08-21T09:38:07.615Z,1.700
2022-08-21T09:39:07.250Z,1.899
2022-08-21T09:40:07.611Z,2.099
2022-08-21T09:41:07.159Z,1.799
2022-08-21T09:43:07.028Z,1.899
2022-08-21T09:44:07.445Z,2.099
2022-08-21T09:45:07.382Z,1.899
2022-08-21T09:47:07.328Z,1.799
2022-08-21T09:49:14.838Z,1.700
2022-08-21T09:50:07.480Z,1.600
2022-08-21T09:51:07.021Z,1.799
2022-08-21T09:52:07.346Z,1.700
2022-08-21T09:53:15.845Z,1.5
2022-08-21T09:55:07.616Z,1.600
2022-08-21T09:56:07.000Z,1.5
2022-08-21T09:57:07.427Z,1.899
2022-08-21T09:58:07.871Z,1.600
2022-08-21T09:59:07.268Z,1.700
2022-08-21T10:00:08.319Z,1.5
2022-08-21T10:01:07.232Z,1.600
2022-08-21T10:03:07.179Z,1.5
2022-08-21T10:04:07.289Z,1.799
2022-08-21T10:05:07.964Z,1.600
2022-08-21T10:07:07.993Z,2.099
2022-08-21T10:08:07.458Z,1.899
2022-08-21T10:09:07.117Z,1
2022-08-21T10:10:07.428Z,1.799
2022-08-21T10:11:07.706Z,1.700
2022-08-21T10:13:07.745Z,1.899
2022-08-21T10:14:07.260Z,1.5
2022-08-21T10:16:07.381Z,1.799
2022-08-21T10:18:07.114Z,1.5
2022-08-21T10:19:07.413Z,1.600
2022-08-21T10:20:08.015Z,2
2022-08-21T10:21:11.744Z,1.399
2022-08-21T10:22:07.110Z,1.799
2022-08-21T10:24:07.768Z,1.600
2022-08-21T10:25:07.327Z,1.5
2022-08-21T10:27:07.145Z,1.700
2022-08-21T10:28:12.877Z,1.799
2022-08-21T10:29:07.194Z,1.700
2022-08-21T10:30:07.975Z,1.600
2022-08-21T10:31:07.236Z,1.700
2022-08-21T10:32:11.712Z,1.600
2022-08-21T10:33:07.528Z,1.200
2022-08-21T10:34:07.037Z,1.799
2022-08-21T10:35:07.244Z,1.600
2022-08-21T10:36:07.593Z,1.700
2022-08-21T10:37:10.714Z,1.600
2022-08-21T10:38:07.274Z,1.799
2022-08-21T10:39:25.896Z,1.700
2022-08-21T10:40:07.383Z,1.399
2022-08-21T10:41:07.106Z,1.600
2022-08-21T10:42:07.388Z,1.799
2022-08-21T10:43:07.874Z,1.600
2022-08-21T10:44:07.433Z,1.5
2022-08-21T10:45:08.146Z,1.799
2022-08-21T10:46:07.768Z,1.600
2022-08-21T10:47:07.524Z,1.799
2022-08-21T10:48:08.144Z,1.700
2022-08-21T10:49:07.554Z,1.600
2022-08-21T10:50:08.004Z,1.799
2022-08-21T10:51:07.447Z,1.600
2022-08-21T10:52:07.767Z,1.700
2022-08-21T10:53:07.059Z,1.799
2022-08-21T10:54:07.389Z,1.700
2022-08-21T10:56:07.267Z,1.399
2022-08-21T10:57:07.494Z,1.799
2022-08-21T10:58:07.287Z,1.600
2022-08-21T10:59:07.764Z,1.700
2022-08-21T11:00:07.664Z,1.799
2022-08-21T11:01:07.642Z,1.700
2022-08-21T11:02:07.299Z,1.600
2022-08-21T11:04:07.565Z,2
2022-08-21T11:05:07.549Z,1.600
2022-08-21T11:07:07.304Z,1.700
2022-08-21T11:08:07.783Z,1.799
2022-08-21T11:09:07.242Z,1.5
2022-08-21T11:10:08.066Z,1.600
2022-08-21T11:11:08.658Z,1.899
2022-08-21T11:12:11.563Z,1.5
2022-08-21T11:13:07.624Z,1.799
2022-08-21T11:14:07.300Z,1.600
2022-08-21T11:15:07.785Z,1.5
2022-08-21T11:16:08.045Z,1.600
2022-08-21T11:17:07.771Z,1.5
2022-08-21T11:19:07.530Z,1.600
2022-08-21T11:21:07.548Z,1.799
2022-08-21T11:22:07.707Z,1.600
2022-08-21T11:23:07.198Z,1.700
2022-08-21T11:24:07.265Z,1.600
2022-08-21T11:27:07.096Z,1
2022-08-21T11:28:10.931Z,1.600
2022-08-21T11:29:07.672Z,1.5
2022-08-21T11:30:07.321Z,1.399
2022-08-21T11:31:07.573Z,1
2022-08-21T11:32:07.826Z,1.5
2022-08-21T11:33:07.439Z,1.399
2022-08-21T11:34:07.720Z,1
2022-08-21T11:35:07.363Z,1.399
2022-08-21T11:36:07.708Z,2
2022-08-21T11:37:07.485Z,1.399
2022-08-21T11:39:06.986Z,1
2022-08-21T11:40:07.778Z,1.399
2022-08-21T11:41:07.348Z,1.700
2022-08-21T11:42:09.108Z,1.399
2022-08-21T11:43:07.714Z,1.600
2022-08-21T11:44:06.937Z,1.700
2022-08-21T11:45:07.340Z,1
2022-08-21T11:46:07.465Z,1.399
2022-08-21T11:47:07.724Z,1.600
2022-08-21T11:49:07.717Z,1.399
2022-08-21T11:50:18.123Z,1.600
2022-08-21T11:52:07.297Z,1
2022-08-21T11:53:07.584Z,1.399
2022-08-21T11:54:07.387Z,1.700
2022-08-21T11:55:07.957Z,1.5
2022-08-21T11:56:07.158Z,1.399
2022-08-21T11:57:07.486Z,1.700
2022-08-21T11:58:07.173Z,1.200
2022-08-21T11:59:07.314Z,1.399
2022-08-21T12:00:08.589Z,1.5
2022-08-21T12:01:07.446Z,1
2022-08-21T12:02:07.344Z,1.600
2022-08-21T12:03:07.854Z,1.5
2022-08-21T12:04:07.367Z,1.200
2022-08-21T12:05:08.670Z,1
2022-08-21T12:06:07.411Z,1.5
2022-08-21T12:07:07.749Z,1.700
2022-08-21T12:08:07.155Z,1.200
2022-08-21T12:09:07.409Z,1.399
2022-08-21T12:10:07.448Z,1.5
2022-08-21T12:11:07.590Z,1.600
2022-08-21T12:12:07.057Z,1.200
2022-08-21T12:13:07.843Z,1.5
2022-08-21T12:14:07.399Z,1.399
2022-08-21T12:16:07.610Z,1
2022-08-21T12:18:07.694Z,1.200
2022-08-21T12:19:06.985Z,1
2022-08-21T12:21:07.818Z,1.399
2022-08-21T12:22:07.198Z,1
2022-08-21T12:24:07.883Z,1.399
2022-08-21T12:25:07.922Z,1.5
2022-08-21T12:27:07.046Z,1.399
2022-08-21T12:28:07.310Z,1
2022-08-21T12:29:07.513Z,1.5
2022-08-21T12:30:08.268Z,1.200
2022-08-21T12:31:07.582Z,1.100
2022-08-21T12:32:07.173Z,1
2022-08-21T12:34:07.683Z,1.399
2022-08-21T12:37:07.625Z,1.700
2022-08-21T12:38:07.365Z,1.600
2022-08-21T12:40:07.431Z,1.200
2022-08-21T12:41:07.729Z,1.5
2022-08-21T12:42:07.113Z,1.600
2022-08-21T12:43:07.826Z,1.5
2022-08-21T12:44:07.445Z,1.399
2022-08-21T12:45:08.443Z,1.600
2022-08-21T12:46:07.094Z,1.5
2022-08-21T12:47:07.621Z,1.399
2022-08-21T12:51:07.454Z,1
2022-08-21T12:53:20.259Z,1.399
2022-08-21T12:54:07.195Z,1.5
2022-08-21T12:55:07.630Z,1.600
2022-08-21T12:56:07.160Z,1.200
2022-08-21T12:57:07.581Z,1.399
2022-08-21T13:00:08.089Z,1.200
2022-08-21T13:02:07.617Z,1
2022-08-21T13:04:07.562Z,1.200
2022-08-21T13:05:07.261Z,1
2022-08-21T13:07:07.517Z,1.5
2022-08-21T13:08:07.313Z,1
2022-08-21T13:11:09.269Z,1.399
2022-08-21T13:12:07.916Z,1.200
2022-08-21T13:13:12.280Z,1.399
2022-08-21T13:14:08.177Z,1
2022-08-21T13:15:08.916Z,1.600
2022-08-21T13:16:07.952Z,1.200
2022-08-21T13:17:07.353Z,1.399
2022-08-21T13:18:07.936Z,1
2022-08-21T13:19:07.191Z,1.399
2022-08-21T13:21:07.083Z,1.399
2022-08-21T13:22:33.142Z,1
2022-08-21T13:23:07.756Z,1.399
2022-08-21T13:24:19.566Z,1.5
2022-08-21T13:25:07.621Z,1.200
2022-08-21T13:26:07.259Z,1.5
2022-08-21T13:27:07.648Z,1.200
2022-08-21T13:28:07.459Z,1
2022-08-21T13:29:07.126Z,1.399
2022-08-21T13:30:07.498Z,1.600
2022-08-21T13:31:07.644Z,1.399
2022-08-21T13:32:07.797Z,1.5
2022-08-21T13:33:12.768Z,1.399
2022-08-21T13:34:07.813Z,1.5
2022-08-21T13:35:07.414Z,1.399
2022-08-21T13:36:07.825Z,1.200
2022-08-21T13:37:07.427Z,1
2022-08-21T13:38:07.752Z,1.200
2022-08-21T13:39:07.093Z,1.399
2022-08-21T13:40:07.874Z,1.100
2022-08-21T13:41:07.476Z,1.399
2022-08-21T13:43:07.978Z,1.100
2022-08-21T13:44:07.568Z,1.399
2022-08-21T13:45:07.366Z,1.700
2022-08-21T13:46:08.026Z,1.399
2022-08-21T13:47:08.185Z,1
2022-08-21T13:48:08.090Z,1.200
2022-08-21T13:49:08.072Z,1.600
2022-08-21T13:51:07.116Z,1.399
2022-08-21T13:52:07.394Z,1.600
2022-08-21T13:53:07.113Z,1.5
2022-08-21T13:54:07.644Z,1.200
2022-08-21T13:55:07.678Z,1.399
2022-08-21T13:56:07.364Z,1.5
2022-08-21T13:57:08.105Z,1.700
2022-08-21T13:58:07.548Z,1.600
2022-08-21T13:59:07.247Z,1.5
2022-08-21T14:00:08.342Z,1.600
2022-08-21T14:01:07.740Z,1
2022-08-21T14:02:07.751Z,1.600
2022-08-21T14:03:07.624Z,1.5
2022-08-21T14:04:07.359Z,1.200
2022-08-21T14:05:07.827Z,1
2022-08-21T14:06:07.424Z,1.5
2022-08-21T14:07:07.906Z,1.200
2022-08-21T14:08:07.189Z,1.399
2022-08-21T14:09:07.567Z,1.100
2022-08-21T14:10:07.396Z,1.200
2022-08-21T14:11:07.693Z,1.5
2022-08-21T14:12:07.537Z,1.399
2022-08-21T14:13:07.814Z,1
2022-08-21T14:15:08.332Z,1.5
2022-08-21T14:16:07.263Z,1.200
2022-08-21T14:17:24.463Z,1.600
2022-08-21T14:18:07.634Z,1.899
2022-08-21T14:19:07.520Z,1.399
2022-08-21T14:20:08.168Z,1.5
2022-08-21T14:21:07.852Z,1.399
2022-08-21T14:22:07.607Z,1.5
2022-08-21T14:25:07.226Z,1.399
2022-08-21T14:26:07.587Z,1
2022-08-21T14:27:07.307Z,1.399
2022-08-21T14:28:09.815Z,1.700
2022-08-21T14:29:10.204Z,1.600
2022-08-21T14:30:07.879Z,1.5
2022-08-21T14:31:07.328Z,1.600
2022-08-21T14:32:08.067Z,2
2022-08-21T14:33:07.825Z,1
2022-08-21T14:34:15.650Z,1.600
2022-08-21T14:35:07.286Z,1.5
2022-08-21T14:37:07.683Z,1.600
2022-08-21T14:38:07.322Z,1.700
2022-08-21T14:39:12.817Z,1.399
2022-08-21T14:40:07.845Z,1.5
2022-08-21T14:42:07.687Z,1.600
2022-08-21T14:44:09.487Z,1.700
2022-08-21T14:45:07.957Z,1.600
2022-08-21T14:46:07.669Z,1.899
2022-08-21T14:47:07.312Z,1.399
2022-08-21T14:48:07.921Z,1.899
2022-08-21T14:49:07.623Z,1.600
2022-08-21T14:50:07.517Z,1.700
2022-08-21T14:51:07.406Z,1.600
2022-08-21T14:52:07.918Z,1.5
2022-08-21T14:53:11.233Z,1.700
2022-08-21T14:55:07.629Z,1.5
2022-08-21T14:56:07.330Z,1
2022-08-21T14:58:07.499Z,1.399
2022-08-21T14:59:07.203Z,1.5
2022-08-21T15:00:08.150Z,1.700
2022-08-21T15:01:07.463Z,1.899
2022-08-21T15:02:07.180Z,1.399
2022-08-21T15:03:07.775Z,1.5
2022-08-21T15:05:07.388Z,1
2022-08-21T15:06:07.366Z,1.200
2022-08-21T15:07:07.814Z,1.700
2022-08-21T15:08:07.576Z,1.5
2022-08-21T15:09:07.298Z,1.700